Who's Online

We have 36 guests online

GK Weather

An error occured during parsing XML data. Please try again.

Aviation WX

[source: ADDS]
KIAD 271252Z 00000KT 7SM BKN160 BKN250 04/04 A3054 RMK AO2 SLP343 T00440039 =
KIAD 271138Z 2712/2818 VRB04KT 6SM BR BKN200 TEMPO 2712/2713 3SM BR FM271300 19007KT P6SM SCT250 FM280200 VRB04KT P6SM SCT050 BKN150 =
SR / SS: 01:45 / 11:33 UTC (Washington-Dulles 2015-11-27)

JoomlaWatch Agent

Home Links
We are regularly out on the Web. When we find a great site we list it.